createdAt,value
2023-05-25T00:01:01.786Z,7.22
2023-05-25T00:03:33.207Z,7.60
2023-05-25T00:06:06.113Z,7.18
2023-05-25T00:08:36.206Z,7.82
2023-05-25T00:11:04.673Z,7.47
2023-05-25T00:13:33.114Z,7.57
2023-05-25T00:16:02.020Z,7.63
2023-05-25T00:18:30.372Z,7.20
2023-05-25T00:20:58.751Z,7.22
2023-05-25T00:23:27.128Z,7.53
2023-05-25T00:25:56.939Z,7.72
2023-05-25T00:28:25.462Z,7.63
2023-05-25T00:30:54.068Z,8.63
2023-05-25T00:33:23.166Z,8.20
2023-05-25T00:35:52.632Z,8.02
2023-05-25T00:38:21.911Z,8.50
2023-05-25T00:40:50.603Z,8.18
2023-05-25T00:43:20.806Z,8.40
2023-05-25T00:45:49.697Z,8.43
2023-05-25T00:48:18.161Z,8.43
2023-05-25T00:50:47.525Z,8.27
2023-05-25T00:53:16.297Z,8.82
2023-05-25T00:55:51.950Z,9.10
2023-05-25T00:58:23.523Z,7.80
2023-05-25T01:00:54.197Z,9.13
2023-05-25T01:03:28.147Z,8.65
2023-05-25T01:05:58.678Z,9.02
2023-05-25T01:08:28.343Z,8.45
2023-05-25T01:10:58.692Z,8.68
2023-05-25T01:13:30.114Z,8.68
2023-05-25T01:15:59.701Z,8.93
2023-05-25T01:18:28.360Z,8.48
2023-05-25T01:21:14.152Z,9.48
2023-05-25T01:24:17.746Z,9.23
2023-05-25T01:26:51.709Z,8.43
2023-05-25T01:29:21.065Z,9.00
2023-05-25T01:31:50.334Z,8.93
2023-05-25T01:34:18.934Z,8.98
2023-05-25T01:36:49.103Z,7.65
2023-05-25T01:39:18.426Z,9.00
2023-05-25T01:41:47.292Z,8.05
2023-05-25T01:44:16.037Z,8.35
2023-05-25T01:46:44.520Z,9.02
2023-05-25T01:49:33.561Z,7.95
2023-05-25T01:52:11.391Z,8.52
2023-05-25T01:54:44.988Z,8.52
2023-05-25T01:57:16.950Z,9.00
2023-05-25T01:59:48.418Z,9.40
2023-05-25T02:02:19.190Z,10.10
2023-05-25T02:04:48.743Z,8.75
2023-05-25T02:07:19.425Z,9.20
2023-05-25T02:09:47.928Z,8.95
2023-05-25T02:12:16.375Z,9.43
2023-05-25T02:14:46.014Z,9.25
2023-05-25T02:17:14.464Z,9.95
2023-05-25T02:19:43.055Z,9.80
2023-05-25T02:22:11.500Z,9.38
2023-05-25T02:24:41.716Z,9.43
2023-05-25T02:27:12.902Z,9.73
2023-05-25T02:29:41.818Z,9.38
2023-05-25T02:32:10.462Z,9.35
2023-05-25T02:34:38.846Z,9.52
2023-05-25T02:37:07.343Z,9.52
2023-05-25T02:39:35.895Z,9.27
2023-05-25T02:42:06.211Z,9.30
2023-05-25T02:44:34.804Z,9.50
2023-05-25T02:47:03.159Z,9.80
2023-05-25T02:49:31.591Z,8.77
2023-05-25T02:51:59.885Z,9.10
2023-05-25T02:54:28.230Z,9.00
2023-05-25T02:56:56.722Z,10.13
2023-05-25T02:59:26.634Z,10.02
2023-05-25T03:01:55.004Z,10.68
2023-05-25T03:04:23.474Z,10.63
2023-05-25T03:06:51.859Z,10.80
2023-05-25T03:09:20.939Z,10.82
2023-05-25T03:11:49.543Z,9.55
2023-05-25T03:14:17.856Z,9.68
2023-05-25T03:16:47.864Z,9.57
2023-05-25T03:19:16.578Z,10.43
2023-05-25T03:21:44.970Z,10.52
2023-05-25T03:24:13.517Z,10.82
2023-05-25T03:26:41.889Z,10.15
2023-05-25T03:29:10.372Z,9.95
2023-05-25T03:31:38.853Z,10.48
2023-05-25T03:34:08.618Z,9.32
2023-05-25T03:36:37.611Z,10.07
2023-05-25T03:39:06.199Z,9.25
2023-05-25T03:41:34.579Z,8.95
2023-05-25T03:44:03.361Z,9.88
2023-05-25T03:46:33.977Z,9.77
2023-05-25T03:49:02.456Z,8.88
2023-05-25T03:51:32.230Z,8.38
2023-05-25T03:54:00.749Z,8.85
2023-05-25T03:56:29.190Z,8.98
2023-05-25T03:58:57.453Z,8.63
2023-05-25T04:01:26.488Z,8.77
2023-05-25T04:03:54.924Z,8.43
2023-05-25T04:06:25.555Z,8.43
2023-05-25T04:08:55.783Z,8.82
2023-05-25T04:11:24.778Z,9.60
2023-05-25T04:13:53.203Z,9.13
2023-05-25T04:16:21.859Z,8.90
2023-05-25T04:18:50.353Z,8.15
2023-05-25T04:21:18.851Z,9.02
2023-05-25T04:23:47.307Z,9.10
2023-05-25T04:26:17.204Z,9.20
2023-05-25T04:28:46.017Z,9.63
2023-05-25T04:31:14.455Z,9.50
2023-05-25T04:33:43.063Z,10.05
2023-05-25T04:36:11.439Z,9.95
2023-05-25T04:38:39.852Z,9.52
2023-05-25T04:41:09.187Z,10.43
2023-05-25T04:43:49.252Z,10.48
2023-05-25T04:46:25.750Z,11.20
2023-05-25T04:48:54.489Z,10.38
2023-05-25T04:51:23.059Z,11.10
2023-05-25T04:53:52.310Z,10.73
2023-05-25T04:56:22.301Z,10.25
2023-05-25T04:58:52.725Z,10.65
2023-05-25T05:01:21.136Z,11.35
2023-05-25T05:03:49.929Z,11.10
2023-05-25T05:06:19.054Z,10.88
2023-05-25T05:08:47.746Z,11.18
2023-05-25T05:11:16.306Z,12.00
2023-05-25T05:13:44.953Z,11.80
2023-05-25T05:16:14.752Z,11.13
2023-05-25T05:18:43.277Z,10.95
2023-05-25T05:21:11.603Z,11.18
2023-05-25T05:23:39.989Z,9.15
2023-05-25T05:26:11.139Z,9.80
2023-05-25T05:28:39.556Z,9.90
2023-05-25T05:31:08.244Z,10.18
2023-05-25T05:33:38.163Z,9.82
2023-05-25T05:36:07.285Z,9.27
2023-05-25T05:38:36.108Z,10.05
2023-05-25T05:41:14.557Z,9.38
2023-05-25T05:43:45.590Z,8.93
2023-05-25T05:46:14.391Z,9.30
2023-05-25T05:48:44.307Z,9.07
2023-05-25T05:51:12.695Z,8.45
2023-05-25T05:53:41.565Z,9.73
2023-05-25T05:56:18.855Z,9.68
2023-05-25T05:58:49.786Z,9.75
2023-05-25T06:01:18.312Z,8.70
2023-05-25T06:03:48.542Z,9.13
2023-05-25T06:06:17.175Z,8.27
2023-05-25T06:08:45.593Z,8.43
2023-05-25T06:11:14.046Z,7.95
2023-05-25T06:13:42.941Z,8.27
2023-05-25T06:16:13.366Z,8.27
2023-05-25T06:18:41.904Z,8.27
2023-05-25T06:21:12.939Z,7.38
2023-05-25T06:23:43.157Z,7.90
2023-05-25T06:26:11.662Z,8.10
2023-05-25T06:28:40.092Z,8.70
2023-05-25T06:31:08.746Z,7.82
2023-05-25T06:33:37.439Z,7.53
2023-05-25T06:36:07.440Z,6.82
2023-05-25T06:38:37.450Z,6.22
2023-05-25T06:41:07.751Z,5.90
2023-05-25T06:43:36.102Z,6.18
2023-05-25T06:46:04.500Z,5.53
2023-05-25T06:48:32.906Z,6.07
2023-05-25T06:51:01.486Z,5.47
2023-05-25T06:53:29.981Z,4.90
2023-05-25T06:56:00.457Z,6.00
2023-05-25T06:58:28.810Z,5.10
2023-05-25T07:00:57.577Z,5.40
2023-05-25T07:03:26.111Z,4.70
2023-05-25T07:05:54.678Z,5.00
2023-05-25T07:08:23.354Z,5.30
2023-05-25T07:10:51.867Z,5.00
2023-05-25T07:13:21.774Z,5.45
2023-05-25T07:15:50.341Z,5.00
2023-05-25T07:18:18.856Z,5.30
2023-05-25T07:20:48.381Z,4.32
2023-05-25T07:23:16.876Z,4.57
2023-05-25T07:25:46.241Z,5.50
2023-05-25T07:28:14.867Z,5.15
2023-05-25T07:30:44.919Z,4.80
2023-05-25T07:33:13.244Z,4.80
2023-05-25T07:35:41.872Z,4.68
2023-05-25T07:38:11.098Z,4.70
2023-05-25T07:40:39.526Z,4.45
2023-05-25T07:43:08.648Z,3.83
2023-05-25T07:45:37.163Z,4.65
2023-05-25T07:48:08.027Z,3.47
2023-05-25T07:50:36.867Z,4.25
2023-05-25T07:53:05.636Z,4.25
2023-05-25T07:55:34.013Z,3.70
2023-05-25T07:58:02.570Z,3.60
2023-05-25T08:00:31.150Z,4.22
2023-05-25T08:02:59.688Z,4.75
2023-05-25T08:05:29.765Z,4.47
2023-05-25T08:07:58.187Z,4.60
2023-05-25T08:10:31.411Z,4.43
2023-05-25T08:13:00.131Z,4.50
2023-05-25T08:15:28.554Z,4.10
2023-05-25T08:17:57.466Z,5.00
2023-05-25T08:20:26.179Z,4.43
2023-05-25T08:22:56.209Z,4.63
2023-05-25T08:25:24.614Z,4.45
2023-05-25T08:27:53.142Z,4.40
2023-05-25T08:30:21.577Z,3.92
2023-05-25T08:32:50.046Z,4.10
2023-05-25T08:35:18.821Z,4.65
2023-05-25T08:37:47.576Z,4.28
2023-05-25T08:40:18.973Z,4.53
2023-05-25T08:42:47.863Z,4.63
2023-05-25T08:45:30.285Z,4.40
2023-05-25T08:48:05.572Z,4.28
2023-05-25T08:50:35.816Z,4.47
2023-05-25T08:53:07.939Z,4.47
2023-05-25T08:55:40.691Z,3.85
2023-05-25T08:58:16.514Z,4.57
2023-05-25T09:00:58.358Z,4.10
2023-05-25T09:03:26.883Z,4.22
2023-05-25T09:05:59.546Z,4.43
2023-05-25T09:08:28.256Z,4.90
2023-05-25T09:10:58.690Z,4.50
2023-05-25T09:13:27.873Z,4.45
2023-05-25T09:15:56.906Z,3.47
2023-05-25T09:18:25.362Z,4.50
2023-05-25T09:20:55.508Z,3.80
2023-05-25T09:23:24.828Z,4.38
2023-05-25T09:25:54.254Z,4.18
2023-05-25T09:28:27.670Z,4.18
2023-05-25T09:30:57.575Z,4.05
2023-05-25T09:33:26.038Z,3.35
2023-05-25T09:35:55.484Z,4.72
2023-05-25T09:38:24.423Z,4.15
2023-05-25T09:40:53.212Z,4.20
2023-05-25T09:43:39.712Z,4.40
2023-05-25T09:46:11.596Z,3.92
2023-05-25T09:48:40.073Z,4.00
2023-05-25T09:51:09.979Z,4.43
2023-05-25T09:53:38.933Z,5.43
2023-05-25T09:56:07.899Z,4.25
2023-05-25T09:58:38.141Z,3.90
2023-05-25T10:01:07.770Z,3.60
2023-05-25T10:03:36.188Z,3.50
2023-05-25T10:06:05.954Z,4.35
2023-05-25T10:08:35.324Z,4.50
2023-05-25T10:11:05.004Z,4.47
2023-05-25T10:13:34.902Z,4.78
2023-05-25T10:16:06.758Z,4.75
2023-05-25T10:18:42.268Z,4.50
2023-05-25T10:21:11.822Z,4.10
2023-05-25T10:23:47.613Z,3.85
2023-05-25T10:26:22.834Z,4.18
2023-05-25T10:28:52.837Z,4.00
2023-05-25T10:31:28.407Z,4.28
2023-05-25T10:33:58.011Z,4.82
2023-05-25T10:36:27.864Z,4.65
2023-05-25T10:38:57.081Z,4.50
2023-05-25T10:41:26.445Z,4.57
2023-05-25T10:43:55.281Z,4.15
2023-05-25T10:46:25.297Z,4.05
2023-05-25T10:48:53.860Z,4.40
2023-05-25T10:51:24.300Z,4.70
2023-05-25T10:54:02.786Z,4.20
2023-05-25T10:56:31.293Z,3.63
2023-05-25T10:58:59.711Z,3.85
2023-05-25T11:01:34.977Z,4.30
2023-05-25T11:04:17.760Z,3.83
2023-05-25T11:07:16.932Z,4.05
2023-05-25T11:09:58.825Z,3.83
2023-05-25T11:12:28.252Z,4.30
2023-05-25T11:15:16.414Z,4.78
2023-05-25T11:18:01.554Z,4.05
2023-05-25T11:20:31.295Z,4.05
2023-05-25T11:23:00.092Z,3.95
2023-05-25T11:25:44.120Z,3.38
2023-05-25T11:28:13.155Z,3.58
2023-05-25T11:30:43.287Z,3.72
2023-05-25T11:33:13.589Z,4.38
2023-05-25T11:35:45.872Z,4.20
2023-05-25T11:38:16.175Z,4.20
2023-05-25T11:40:44.649Z,4.10
2023-05-25T11:43:14.388Z,4.78
2023-05-25T11:45:44.504Z,4.15
2023-05-25T11:48:16.845Z,4.65
2023-05-25T11:50:45.732Z,4.85
2023-05-25T11:53:15.034Z,4.45
2023-05-25T11:55:50.952Z,4.88
2023-05-25T11:58:22.369Z,5.55
2023-05-25T12:00:50.850Z,5.45
2023-05-25T12:03:33.299Z,5.35
2023-05-25T12:06:02.459Z,5.30
2023-05-25T12:08:34.206Z,5.82
2023-05-25T12:11:02.775Z,5.20
2023-05-25T12:13:32.283Z,4.93
2023-05-25T12:16:01.242Z,5.45
2023-05-25T12:18:29.984Z,5.18
2023-05-25T12:20:59.930Z,5.63
2023-05-25T12:23:28.414Z,5.55
2023-05-25T12:26:10.755Z,5.47
2023-05-25T12:28:39.588Z,4.93
2023-05-25T12:31:24.379Z,5.47
2023-05-25T12:34:08.216Z,5.90
2023-05-25T12:36:56.435Z,6.50
2023-05-25T12:39:39.209Z,5.45
2023-05-25T12:42:16.062Z,5.10
2023-05-25T12:44:55.592Z,5.00
2023-05-25T12:47:25.439Z,5.10
2023-05-25T12:49:55.412Z,5.22
2023-05-25T12:52:37.053Z,5.47
2023-05-25T12:55:25.810Z,5.53
2023-05-25T12:57:54.647Z,4.70
2023-05-25T13:00:24.512Z,4.80
2023-05-25T13:02:53.661Z,5.03
2023-05-25T13:05:23.412Z,4.65
2023-05-25T13:07:55.633Z,4.03
2023-05-25T13:10:25.276Z,3.45
2023-05-25T13:12:57.328Z,3.50
2023-05-25T13:15:27.041Z,3.90
2023-05-25T13:17:58.608Z,4.50
2023-05-25T13:20:29.800Z,4.18
2023-05-25T13:23:00.345Z,3.85
2023-05-25T13:25:29.776Z,4.30
2023-05-25T13:28:00.292Z,4.18
2023-05-25T13:30:29.094Z,4.28
2023-05-25T13:32:57.461Z,3.88
2023-05-25T13:35:42.000Z,4.00
2023-05-25T13:38:14.611Z,4.57
2023-05-25T13:40:45.605Z,4.68
2023-05-25T13:43:14.240Z,4.05
2023-05-25T13:45:43.176Z,4.35
2023-05-25T13:48:11.746Z,4.80
2023-05-25T13:50:40.179Z,4.50
2023-05-25T13:53:08.864Z,4.80
2023-05-25T13:55:38.811Z,4.30
2023-05-25T13:58:07.878Z,5.05
2023-05-25T14:00:36.910Z,4.40
2023-05-25T14:03:06.530Z,4.45
2023-05-25T14:05:35.294Z,4.05
2023-05-25T14:08:04.949Z,4.03
2023-05-25T14:10:33.521Z,4.22
2023-05-25T14:13:03.584Z,4.25
2023-05-25T14:15:32.350Z,4.43
2023-05-25T14:18:00.832Z,4.57
2023-05-25T14:20:29.392Z,4.15
2023-05-25T14:22:57.935Z,4.90
2023-05-25T14:25:26.478Z,5.00
2023-05-25T14:27:55.860Z,4.88
2023-05-25T14:30:26.115Z,5.47
2023-05-25T14:32:54.705Z,4.63
2023-05-25T14:35:23.798Z,4.90
2023-05-25T14:37:52.699Z,4.57
2023-05-25T14:40:22.158Z,5.00
2023-05-25T14:42:50.591Z,5.20
2023-05-25T14:45:19.544Z,5.32
2023-05-25T14:47:50.680Z,5.30
2023-05-25T14:50:22.011Z,5.15
2023-05-25T14:52:50.532Z,4.80
2023-05-25T14:55:19.543Z,4.72
2023-05-25T14:57:48.102Z,4.95
2023-05-25T15:00:17.553Z,4.93
2023-05-25T15:02:46.907Z,5.75
2023-05-25T15:05:16.998Z,4.35
2023-05-25T15:07:45.797Z,4.63
2023-05-25T15:10:14.384Z,4.15
2023-05-25T15:12:42.935Z,4.05
2023-05-25T15:15:13.035Z,4.50
2023-05-25T15:17:41.600Z,5.70
2023-05-25T15:20:11.769Z,4.82
2023-05-25T15:22:48.560Z,4.40
2023-05-25T15:25:24.493Z,5.10
2023-05-25T15:28:02.727Z,5.28
2023-05-25T15:30:33.234Z,5.03
2023-05-25T15:33:21.585Z,5.25
2023-05-25T15:35:57.124Z,5.78
2023-05-25T15:38:30.146Z,5.22
2023-05-25T15:41:00.334Z,4.82
2023-05-25T15:43:29.216Z,5.75
2023-05-25T15:45:57.549Z,4.88
2023-05-25T15:48:26.531Z,5.60
2023-05-25T15:50:54.990Z,5.72
2023-05-25T15:53:23.405Z,5.30
2023-05-25T15:55:53.132Z,6.80
2023-05-25T15:58:21.449Z,8.57
2023-05-25T16:00:49.838Z,5.88
2023-05-25T16:03:21.353Z,5.95
2023-05-25T16:05:50.511Z,5.93
2023-05-25T16:08:21.916Z,6.38
2023-05-25T16:10:50.419Z,5.78
2023-05-25T16:13:20.111Z,7.53
2023-05-25T16:15:48.998Z,6.50
2023-05-25T16:18:17.663Z,5.60
2023-05-25T16:20:46.423Z,5.20
2023-05-25T16:23:16.558Z,5.60
2023-05-25T16:25:47.365Z,5.22
2023-05-25T16:28:15.931Z,5.55
2023-05-25T16:31:04.160Z,5.05
2023-05-25T16:33:32.771Z,4.60
2023-05-25T16:36:01.411Z,5.35
2023-05-25T16:38:29.815Z,4.97
2023-05-25T16:40:58.479Z,5.05
2023-05-25T16:43:26.977Z,4.95
2023-05-25T16:45:57.387Z,5.13
2023-05-25T16:48:25.874Z,5.93
2023-05-25T16:50:54.328Z,5.30
2023-05-25T16:53:23.058Z,5.45
2023-05-25T16:55:59.295Z,4.93
2023-05-25T16:58:27.799Z,5.07
2023-05-25T17:00:57.907Z,5.80
2023-05-25T17:03:26.721Z,5.72
2023-05-25T17:05:55.269Z,5.90
2023-05-25T17:08:26.449Z,5.50
2023-05-25T17:10:58.119Z,5.30
2023-05-25T17:13:26.556Z,5.25
2023-05-25T17:15:56.484Z,6.00
2023-05-25T17:18:24.980Z,5.57
2023-05-25T17:20:53.356Z,6.28
2023-05-25T17:23:24.190Z,6.28
2023-05-25T17:25:53.984Z,5.55
2023-05-25T17:28:30.004Z,6.68
2023-05-25T17:31:01.381Z,5.63
2023-05-25T17:33:35.189Z,5.55
2023-05-25T17:36:03.619Z,6.72
2023-05-25T17:38:33.931Z,6.60
2023-05-25T17:41:05.649Z,6.90
2023-05-25T17:43:36.893Z,6.68
2023-05-25T17:46:07.682Z,6.90
2023-05-25T17:48:43.286Z,6.93
2023-05-25T17:51:11.817Z,6.28
2023-05-25T17:53:40.175Z,6.95
2023-05-25T17:56:09.453Z,6.53
2023-05-25T17:58:38.220Z,6.57
2023-05-25T18:01:08.352Z,7.40
2023-05-25T18:03:36.874Z,7.30
2023-05-25T18:06:05.824Z,6.68
2023-05-25T18:08:34.304Z,6.75
2023-05-25T18:11:02.766Z,7.18
2023-05-25T18:13:31.204Z,7.13
2023-05-25T18:15:59.748Z,6.88
2023-05-25T18:18:29.584Z,7.18
2023-05-25T18:21:00.506Z,7.30
2023-05-25T18:23:28.898Z,6.40
2023-05-25T18:25:57.605Z,6.53
2023-05-25T18:28:26.122Z,7.72
2023-05-25T18:30:55.004Z,6.75
2023-05-25T18:33:23.680Z,7.10
2023-05-25T18:35:53.533Z,6.85
2023-05-25T18:38:21.966Z,7.18
2023-05-25T18:40:50.433Z,7.10
2023-05-25T18:43:18.847Z,7.43
2023-05-25T18:45:47.631Z,7.60
2023-05-25T18:48:18.966Z,7.25
2023-05-25T18:50:47.887Z,7.90
2023-05-25T18:53:17.674Z,7.85
2023-05-25T18:55:46.365Z,7.88
2023-05-25T18:58:14.916Z,6.55
2023-05-25T19:00:43.666Z,8.05
2023-05-25T19:03:12.151Z,7.40
2023-05-25T19:05:40.776Z,8.00
2023-05-25T19:08:09.298Z,6.57
2023-05-25T19:10:42.326Z,7.53
2023-05-25T19:13:22.775Z,8.00
2023-05-25T19:15:51.613Z,8.00
2023-05-25T19:18:20.280Z,7.45
2023-05-25T19:20:49.011Z,7.72
2023-05-25T19:23:19.468Z,7.35
2023-05-25T19:25:49.496Z,7.35
2023-05-25T19:28:17.953Z,6.82
2023-05-25T19:30:48.559Z,7.15
2023-05-25T19:33:16.887Z,8.48
2023-05-25T19:35:46.599Z,7.63
2023-05-25T19:38:15.075Z,8.60
2023-05-25T19:40:43.528Z,7.07
2023-05-25T19:43:13.269Z,7.57
2023-05-25T19:45:42.039Z,8.32
2023-05-25T19:48:10.719Z,7.40
2023-05-25T19:50:39.086Z,7.32
2023-05-25T19:53:07.562Z,8.25
2023-05-25T19:55:37.651Z,7.95
2023-05-25T19:58:06.422Z,7.43
2023-05-25T20:00:36.308Z,7.75
2023-05-25T20:03:05.391Z,7.93
2023-05-25T20:05:33.865Z,8.38
2023-05-25T20:08:02.282Z,7.70
2023-05-25T20:10:30.744Z,8.35
2023-05-25T20:12:59.120Z,8.40
2023-05-25T20:15:27.455Z,8.65
2023-05-25T20:17:57.324Z,7.57
2023-05-25T20:20:25.717Z,7.28
2023-05-25T20:22:54.577Z,7.70
2023-05-25T20:25:22.963Z,7.95
2023-05-25T20:27:51.626Z,7.05
2023-05-25T20:30:19.954Z,7.35
2023-05-25T20:32:49.258Z,8.52
2023-05-25T20:35:19.218Z,7.40
2023-05-25T20:37:47.768Z,7.15
2023-05-25T20:40:16.317Z,8.38
2023-05-25T20:42:44.717Z,7.43
2023-05-25T20:45:13.010Z,8.18
2023-05-25T20:47:41.892Z,7.75
2023-05-25T20:50:10.567Z,8.15
2023-05-25T20:52:41.968Z,8.07
2023-05-25T20:55:10.549Z,8.18
2023-05-25T20:57:39.017Z,7.97
2023-05-25T21:00:12.272Z,7.20
2023-05-25T21:02:40.816Z,7.10
2023-05-25T21:05:11.852Z,8.02
2023-05-25T21:07:45.686Z,8.63
2023-05-25T21:10:39.027Z,7.97
2023-05-25T21:13:07.692Z,7.65
2023-05-25T21:15:36.199Z,7.50
2023-05-25T21:18:05.726Z,7.93
2023-05-25T21:20:34.335Z,8.18
2023-05-25T21:23:04.427Z,7.38
2023-05-25T21:25:33.007Z,7.25
2023-05-25T21:28:01.326Z,7.40
2023-05-25T21:30:29.681Z,7.45
2023-05-25T21:32:58.007Z,8.05
2023-05-25T21:35:26.394Z,7.53
2023-05-25T21:37:55.033Z,7.43
2023-05-25T21:40:24.781Z,7.68
2023-05-25T21:42:54.347Z,7.97
2023-05-25T21:45:22.891Z,7.55
2023-05-25T21:47:51.312Z,7.88
2023-05-25T21:50:19.710Z,8.20
2023-05-25T21:52:48.162Z,7.40
2023-05-25T21:55:16.507Z,7.85
2023-05-25T21:57:46.520Z,7.55
2023-05-25T22:00:16.936Z,7.65
2023-05-25T22:02:45.739Z,6.97
2023-05-25T22:05:15.701Z,7.55
2023-05-25T22:07:44.061Z,7.40
2023-05-25T22:10:12.670Z,7.50
2023-05-25T22:12:41.054Z,7.30
2023-05-25T22:15:11.576Z,7.28
2023-05-25T22:17:40.042Z,7.55
2023-05-25T22:20:11.338Z,7.07
2023-05-25T22:22:39.757Z,7.07
2023-05-25T22:25:08.939Z,6.15
2023-05-25T22:27:37.282Z,6.78
2023-05-25T22:30:10.792Z,7.47
2023-05-25T22:32:41.015Z,7.20
2023-05-25T22:35:10.200Z,6.75
2023-05-25T22:37:38.635Z,6.35
2023-05-25T22:40:08.866Z,6.90
2023-05-25T22:42:37.211Z,6.53
2023-05-25T22:45:06.840Z,7.22
2023-05-25T22:47:35.413Z,6.88
2023-05-25T22:50:05.642Z,5.85
2023-05-25T22:52:34.148Z,6.75
2023-05-25T22:55:02.559Z,6.18
2023-05-25T22:57:39.555Z,6.05
2023-05-25T23:00:09.585Z,6.65
2023-05-25T23:02:38.070Z,6.20
2023-05-25T23:05:09.772Z,5.82
2023-05-25T23:07:38.215Z,7.03
2023-05-25T23:10:07.689Z,5.95
2023-05-25T23:12:36.357Z,6.38
2023-05-25T23:15:07.239Z,6.72
2023-05-25T23:17:36.104Z,6.28
2023-05-25T23:20:06.909Z,5.40
2023-05-25T23:22:37.154Z,6.15
2023-05-25T23:25:06.261Z,6.30
2023-05-25T23:27:34.929Z,5.60
2023-05-25T23:30:04.037Z,5.40
2023-05-25T23:32:32.736Z,5.85
2023-05-25T23:35:01.399Z,5.55
2023-05-25T23:37:29.862Z,6.38
2023-05-25T23:39:59.603Z,5.63
2023-05-25T23:42:29.837Z,6.90
2023-05-25T23:44:58.319Z,6.55
2023-05-25T23:47:26.693Z,6.25
2023-05-25T23:49:55.045Z,5.80
2023-05-25T23:52:23.456Z,6.25
2023-05-25T23:54:51.932Z,5.88
2023-05-25T23:57:21.650Z,6.82
2023-05-25T23:59:49.972Z,6.25
